Terminal Aerodrome Forecast
Issued by NWS Jacksonville, FL

Home | Current Version | Previous Version | Text Only | Print | Product List | Glossary On
Versions: 1 2 3 4 5 6 7 8 9 10 11 12 13 14 15
791
FTUS42 KJAX 222332
TAFSSI
TAF
KSSI 222332Z 2300/2324 13008KT P6SM VCSH SCT020 BKN035 OVC050
     FM231400 16011G16KT P6SM VCSH SCT020 BKN035 OVC050
     FM231700 17012G18KT 6SM -SHRA VCTS BKN020CB OVC050=

USA.gov is the U.S. government's official web portal to all federal, state and local government web resources and services.